Time;durP1;ratioP1;P1;durP2;ratioP2;P2;SDS_P1;SDS_P2;PMS_P1;PMS_P2;Temp;Humidity;BMP_temperature;BMP_pressure;BME280_temperature;BME280_humidity;BME280_pressure;Samples;Min_cycle;Max_cycle;Signal;HPM_P1;HPM_P2
2023/03/09 00:02:21;;;;;;;1.93;1.83;;;;;;;;;;5068382;28;20218;-59
2023/03/09 00:04:48;;;;;;;2.00;1.77;;;;;;;;;;5071049;28;20202;-59
2023/03/09 00:07:15;;;;;;;2.77;1.60;;;;;;;;;;5071108;28;20203;-59
2023/03/09 00:09:42;;;;;;;2.00;1.77;;;;;;;;;;5067139;28;20207;-59
2023/03/09 00:12:09;;;;;;;1.77;1.67;;;;;;;;;;5065972;28;20658;-59
2023/03/09 00:14:36;;;;;;;1.40;1.40;;;;;;;;;;5070945;28;20211;-59
2023/03/09 00:17:03;;;;;;;1.53;1.43;;;;;;;;;;5066325;28;20231;-59
2023/03/09 00:19:31;;;;;;;1.20;1.20;;;;;;;;;;5073239;28;20202;-59
2023/03/09 00:21:58;;;;;;;1.60;1.57;;;;;;;;;;5067475;28;20235;-59
2023/03/09 00:24:27;;;;;;;1.60;1.60;;;;;;;;;;5064679;28;20203;-59
2023/03/09 00:26:55;;;;;;;1.70;1.60;;;;;;;;;;5066583;28;20290;-59
2023/03/09 00:29:22;;;;;;;1.20;1.10;;;;;;;;;;5071886;28;20258;-59
2023/03/09 00:31:49;;;;;;;1.40;1.40;;;;;;;;;;5069246;28;20207;-59
2023/03/09 00:34:17;;;;;;;1.47;1.37;;;;;;;;;;5073707;28;20207;-58
2023/03/09 00:36:45;;;;;;;1.30;1.20;;;;;;;;;;5085404;28;20271;-59
2023/03/09 00:39:14;;;;;;;1.30;1.27;;;;;;;;;;5081253;28;20755;-59
2023/03/09 00:41:41;;;;;;;1.40;1.30;;;;;;;;;;5085675;28;20202;-59
2023/03/09 00:44:08;;;;;;;1.73;1.57;;;;;;;;;;5076247;28;20207;-59
2023/03/09 00:46:35;;;;;;;1.53;1.40;;;;;;;;;;5078532;28;20206;-59
2023/03/09 00:49:03;;;;;;;1.60;1.00;;;;;;;;;;5075189;28;20191;-59
2023/03/09 00:51:31;;;;;;;1.13;1.13;;;;;;;;;;5075728;28;20207;-59
2023/03/09 00:53:59;;;;;;;1.53;1.03;;;;;;;;;;5067000;28;20314;-59
2023/03/09 00:56:29;;;;;;;0.83;0.83;;;;;;;;;;5066551;28;20708;-59
2023/03/09 00:58:56;;;;;;;0.80;0.80;;;;;;;;;;5077932;28;20716;-59
2023/03/09 01:01:24;;;;;;;0.80;0.80;;;;;;;;;;5084882;28;20210;-59
2023/03/09 01:03:51;;;;;;;0.80;0.80;;;;;;;;;;5086082;28;20251;-59
2023/03/09 01:06:18;;;;;;;0.67;0.67;;;;;;;;;;5080659;28;20237;-59
2023/03/09 01:08:46;;;;;;;0.67;0.67;;;;;;;;;;5079397;28;20628;-59
2023/03/09 01:11:15;;;;;;;0.53;0.50;;;;;;;;;;5078405;28;20231;-59
2023/03/09 01:13:42;;;;;;;0.40;0.40;;;;;;;;;;5068706;28;20212;-59
2023/03/09 01:16:10;;;;;;;0.50;0.50;;;;;;;;;;5074358;28;20279;-59
2023/03/09 01:18:37;;;;;;;1.83;0.20;;;;;;;;;;5069895;28;20217;-60
2023/03/09 01:21:04;;;;;;;0.23;0.23;;;;;;;;;;5076351;28;20728;-59
2023/03/09 01:23:31;;;;;;;0.77;0.30;;;;;;;;;;5081858;28;20207;-59
2023/03/09 01:26:02;;;;;;;0.30;0.30;;;;;;;;;;5085520;28;20399;-59
2023/03/09 01:28:30;;;;;;;0.73;0.33;;;;;;;;;;5082141;28;20558;-59
2023/03/09 01:30:57;;;;;;;0.20;0.20;;;;;;;;;;5076273;28;20222;-59
2023/03/09 01:33:24;;;;;;;0.27;0.27;;;;;;;;;;5071599;28;20601;-59
2023/03/09 01:35:51;;;;;;;2.00;0.20;;;;;;;;;;5083624;28;20213;-59
2023/03/09 01:38:18;;;;;;;0.10;0.10;;;;;;;;;;5058300;28;20721;-59
2023/03/09 01:40:46;;;;;;;0.20;0.20;;;;;;;;;;5069454;28;20259;-59
2023/03/09 01:43:26;;;;;;;0.33;0.33;;;;;;;;;;5082039;28;20310;-59
2023/03/09 01:46:12;;;;;;;0.20;0.20;;;;;;;;;;5076714;28;20587;-59
2023/03/09 01:48:41;;;;;;;0.17;0.17;;;;;;;;;;5064727;28;20203;-59
2023/03/09 01:51:08;;;;;;;0.43;0.43;;;;;;;;;;5080869;28;20259;-59
2023/03/09 01:53:35;;;;;;;0.10;0.10;;;;;;;;;;5068147;28;20214;-60
2023/03/09 01:56:02;;;;;;;0.23;0.20;;;;;;;;;;5076163;28;20213;-59
2023/03/09 01:58:32;;;;;;;0.10;0.10;;;;;;;;;;5085994;28;20260;-59
2023/03/09 02:00:59;;;;;;;0.20;0.20;;;;;;;;;;5065526;28;20731;-59
2023/03/09 02:03:27;;;;;;;0.30;0.30;;;;;;;;;;5085557;28;20406;-59
2023/03/09 02:05:57;;;;;;;0.20;0.20;;;;;;;;;;5072921;28;20209;-59
2023/03/09 02:08:24;;;;;;;0.27;0.27;;;;;;;;;;5074079;28;20207;-59
2023/03/09 02:10:54;;;;;;;0.30;0.30;;;;;;;;;;5065398;28;20210;-59
2023/03/09 02:13:23;;;;;;;1.07;0.30;;;;;;;;;;5085672;28;20280;-59
2023/03/09 02:15:50;;;;;;;1.07;0.40;;;;;;;;;;5077180;28;20211;-59
2023/03/09 02:18:17;;;;;;;0.27;0.27;;;;;;;;;;5085333;28;20921;-59
2023/03/09 02:20:49;;;;;;;0.40;0.40;;;;;;;;;;5062477;28;20690;-60
2023/03/09 02:23:20;;;;;;;0.40;0.40;;;;;;;;;;5062398;28;20202;-59
2023/03/09 02:25:50;;;;;;;0.20;0.20;;;;;;;;;;5079071;28;20259;-59
2023/03/09 02:28:19;;;;;;;0.30;0.30;;;;;;;;;;5088536;28;20640;-59
2023/03/09 02:30:46;;;;;;;0.93;0.50;;;;;;;;;;5084076;28;20210;-59
2023/03/09 02:33:25;;;;;;;0.83;0.37;;;;;;;;;;5072079;28;20717;-59
2023/03/09 02:35:53;;;;;;;0.50;0.50;;;;;;;;;;5086172;28;20232;-59
2023/03/09 02:38:20;;;;;;;0.33;0.33;;;;;;;;;;5086715;28;20234;-59
2023/03/09 02:40:47;;;;;;;0.47;0.40;;;;;;;;;;5078355;28;20203;-59
2023/03/09 02:43:14;;;;;;;0.40;0.33;;;;;;;;;;5084601;28;20614;-59
2023/03/09 02:45:43;;;;;;;2.93;0.20;;;;;;;;;;5075594;28;20207;-59
2023/03/09 02:48:10;;;;;;;0.23;0.23;;;;;;;;;;5077257;28;20198;-58
2023/03/09 02:50:37;;;;;;;0.40;0.20;;;;;;;;;;5084089;28;20220;-59
2023/03/09 02:53:05;;;;;;;0.10;0.10;;;;;;;;;;5075389;28;20194;-59
2023/03/09 02:55:32;;;;;;;0.17;0.10;;;;;;;;;;5073799;28;20199;-59
2023/03/09 02:57:59;;;;;;;0.10;0.10;;;;;;;;;;5083189;28;20639;-59
2023/03/09 03:00:26;;;;;;;0.10;0.10;;;;;;;;;;5088438;28;20214;-59
2023/03/09 03:02:54;;;;;;;0.10;0.10;;;;;;;;;;5073812;28;20210;-59
2023/03/09 03:05:21;;;;;;;0.10;0.10;;;;;;;;;;5068962;28;20272;-59
2023/03/09 03:07:49;;;;;;;0.10;0.10;;;;;;;;;;5074184;28;20248;-58
2023/03/09 03:10:16;;;;;;;0.63;0.10;;;;;;;;;;5081548;28;20199;-59
2023/03/09 03:12:43;;;;;;;0.10;0.10;;;;;;;;;;5080566;28;20210;-59
2023/03/09 03:15:10;;;;;;;0.10;0.10;;;;;;;;;;5080075;28;20210;-59
2023/03/09 03:17:37;;;;;;;1.27;0.20;;;;;;;;;;5078996;28;20249;-59
2023/03/09 03:20:11;;;;;;;0.10;0.10;;;;;;;;;;5073849;28;20206;-59
2023/03/09 03:22:38;;;;;;;0.50;0.10;;;;;;;;;;5075014;28;20317;-59
2023/03/09 03:25:06;;;;;;;0.10;0.10;;;;;;;;;;5080174;28;20207;-59
2023/03/09 03:27:33;;;;;;;0.00;0.00;;;;;;;;;;5070037;28;20660;-59
2023/03/09 03:30:00;;;;;;;0.43;0.10;;;;;;;;;;5073833;28;20669;-60
2023/03/09 03:32:27;;;;;;;0.17;0.07;;;;;;;;;;5073800;28;20210;-59
2023/03/09 03:34:54;;;;;;;3.70;0.10;;;;;;;;;;5078890;28;20282;-59
2023/03/09 03:37:23;;;;;;;0.40;0.10;;;;;;;;;;5074172;28;20728;-59
2023/03/09 03:39:50;;;;;;;0.20;0.10;;;;;;;;;;5080078;28;20207;-59
2023/03/09 03:42:17;;;;;;;0.27;0.00;;;;;;;;;;5069103;28;20207;-59
2023/03/09 03:44:44;;;;;;;0.00;0.00;;;;;;;;;;5084116;28;20206;-59
2023/03/09 03:47:12;;;;;;;0.10;0.10;;;;;;;;;;5079030;28;20199;-59
2023/03/09 03:49:39;;;;;;;0.00;0.00;;;;;;;;;;5081760;28;20208;-59
2023/03/09 03:52:06;;;;;;;0.10;0.10;;;;;;;;;;5088069;28;20202;-59
2023/03/09 03:54:34;;;;;;;0.00;0.00;;;;;;;;;;5074688;28;20214;-59
2023/03/09 03:57:03;;;;;;;0.00;0.00;;;;;;;;;;5079040;28;20246;-59
2023/03/09 03:59:30;;;;;;;0.00;0.00;;;;;;;;;;5083186;28;20819;-59
2023/03/09 04:01:57;;;;;;;0.00;0.00;;;;;;;;;;5087121;28;20207;-59
2023/03/09 04:04:28;;;;;;;0.00;0.00;;;;;;;;;;5076110;28;20352;-59
2023/03/09 04:06:55;;;;;;;0.10;0.10;;;;;;;;;;5083845;28;20322;-59
2023/03/09 04:09:22;;;;;;;0.10;0.10;;;;;;;;;;5061768;28;20207;-59
2023/03/09 04:11:50;;;;;;;0.00;0.00;;;;;;;;;;5067199;28;20198;-59
2023/03/09 04:14:17;;;;;;;0.10;0.10;;;;;;;;;;5069613;28;20260;-59
2023/03/09 04:16:44;;;;;;;0.00;0.00;;;;;;;;;;5078718;28;20203;-59
2023/03/09 04:19:11;;;;;;;2.83;0.10;;;;;;;;;;5078237;28;20203;-59
2023/03/09 04:21:38;;;;;;;1.07;0.10;;;;;;;;;;5068527;28;20231;-59
2023/03/09 04:24:06;;;;;;;0.00;0.00;;;;;;;;;;5069622;28;20207;-59
2023/03/09 04:26:33;;;;;;;0.20;0.10;;;;;;;;;;5078463;28;20206;-59
2023/03/09 04:29:01;;;;;;;0.10;0.10;;;;;;;;;;5086886;28;20201;-59
2023/03/09 04:31:28;;;;;;;1.00;0.00;;;;;;;;;;5071224;28;20210;-59
2023/03/09 04:33:55;;;;;;;0.20;0.10;;;;;;;;;;5069678;28;20692;-60
2023/03/09 04:36:22;;;;;;;0.23;0.10;;;;;;;;;;5080335;28;20207;-59
2023/03/09 04:38:49;;;;;;;0.00;0.00;;;;;;;;;;5084249;28;20226;-60
2023/03/09 04:41:16;;;;;;;0.83;0.20;;;;;;;;;;5072558;28;20203;-59
2023/03/09 04:43:43;;;;;;;0.73;0.20;;;;;;;;;;5072757;28;20666;-59
2023/03/09 04:46:12;;;;;;;0.07;0.07;;;;;;;;;;5071742;28;20426;-59
2023/03/09 04:48:39;;;;;;;0.10;0.10;;;;;;;;;;5076974;28;20245;-59
2023/03/09 04:51:06;;;;;;;0.00;0.00;;;;;;;;;;5073666;28;20199;-59
2023/03/09 04:53:33;;;;;;;0.10;0.10;;;;;;;;;;5075455;28;20206;-59
2023/03/09 04:56:00;;;;;;;0.10;0.10;;;;;;;;;;5075609;28;20226;-60
2023/03/09 04:58:27;;;;;;;0.10;0.10;;;;;;;;;;5071696;28;20218;-60
2023/03/09 05:00:54;;;;;;;0.30;0.10;;;;;;;;;;5078388;28;20214;-59
2023/03/09 05:03:23;;;;;;;0.50;0.00;;;;;;;;;;5071986;28;20762;-59
2023/03/09 05:05:50;;;;;;;0.10;0.10;;;;;;;;;;5077039;28;20231;-59
2023/03/09 05:08:17;;;;;;;2.83;0.20;;;;;;;;;;5077854;28;20210;-60
2023/03/09 05:10:55;;;;;;;0.20;0.10;;;;;;;;;;5074148;28;20199;-59
2023/03/09 05:13:22;;;;;;;0.10;0.10;;;;;;;;;;5069351;28;20206;-59
2023/03/09 05:15:49;;;;;;;0.10;0.10;;;;;;;;;;5074952;28;20207;-59
2023/03/09 05:18:16;;;;;;;0.10;0.10;;;;;;;;;;5073941;28;20494;-60
2023/03/09 05:20:45;;;;;;;0.13;0.13;;;;;;;;;;5084985;28;20599;-59
2023/03/09 05:23:12;;;;;;;0.20;0.20;;;;;;;;;;5075567;28;20207;-59
2023/03/09 05:25:39;;;;;;;0.27;0.17;;;;;;;;;;5069836;28;20276;-60
2023/03/09 05:28:07;;;;;;;0.13;0.10;;;;;;;;;;5076395;28;20283;-59
2023/03/09 05:30:34;;;;;;;0.37;0.03;;;;;;;;;;5069768;28;20293;-59
2023/03/09 05:33:01;;;;;;;0.30;0.30;;;;;;;;;;5086530;28;20272;-59
2023/03/09 05:35:28;;;;;;;0.20;0.20;;;;;;;;;;5083976;28;20199;-59
2023/03/09 05:37:57;;;;;;;1.13;0.10;;;;;;;;;;5085578;28;20242;-60
2023/03/09 05:40:24;;;;;;;0.10;0.10;;;;;;;;;;5063106;28;20264;-59
2023/03/09 05:42:51;;;;;;;2.00;0.30;;;;;;;;;;5069171;28;20206;-59
2023/03/09 05:45:19;;;;;;;1.60;0.20;;;;;;;;;;5070023;28;20226;-59
2023/03/09 05:47:46;;;;;;;2.37;0.13;;;;;;;;;;5074194;28;20252;-59
2023/03/09 05:50:13;;;;;;;0.40;0.40;;;;;;;;;;5077886;28;20229;-59
2023/03/09 05:52:40;;;;;;;0.30;0.30;;;;;;;;;;5086668;28;20225;-59
2023/03/09 05:55:09;;;;;;;0.77;0.27;;;;;;;;;;5083637;28;20210;-59
2023/03/09 05:57:36;;;;;;;3.03;0.30;;;;;;;;;;5078188;28;20346;-60
2023/03/09 06:00:04;;;;;;;1.27;0.33;;;;;;;;;;5081478;28;20272;-59
2023/03/09 06:02:31;;;;;;;0.20;0.20;;;;;;;;;;5077034;28;20233;-59
2023/03/09 06:04:58;;;;;;;2.50;0.27;;;;;;;;;;5085544;28;20202;-60
2023/03/09 06:07:25;;;;;;;4.90;0.30;;;;;;;;;;5087705;28;20703;-60
2023/03/09 06:09:55;;;;;;;0.33;0.30;;;;;;;;;;5081623;28;20203;-60
2023/03/09 06:12:24;;;;;;;1.47;0.30;;;;;;;;;;5080500;28;20199;-59
2023/03/09 06:14:52;;;;;;;0.70;0.37;;;;;;;;;;5070448;28;20538;-60
2023/03/09 06:17:19;;;;;;;1.43;0.60;;;;;;;;;;5084186;28;20201;-60
2023/03/09 06:19:46;;;;;;;0.63;0.20;;;;;;;;;;5067447;28;20214;-60
2023/03/09 06:22:13;;;;;;;2.40;0.20;;;;;;;;;;5069025;28;20315;-60
2023/03/09 06:24:42;;;;;;;0.30;0.30;;;;;;;;;;5077753;28;20669;-60
2023/03/09 06:27:09;;;;;;;0.40;0.40;;;;;;;;;;5068992;28;20211;-60
2023/03/09 06:29:37;;;;;;;2.40;0.50;;;;;;;;;;5073425;28;20680;-60
2023/03/09 06:32:04;;;;;;;0.30;0.20;;;;;;;;;;5068356;28;20203;-59
2023/03/09 06:34:32;;;;;;;1.50;0.20;;;;;;;;;;5069914;28;20207;-60
2023/03/09 06:36:59;;;;;;;1.93;0.73;;;;;;;;;;5064500;28;20217;-60
2023/03/09 06:39:26;;;;;;;2.83;0.53;;;;;;;;;;5087346;28;20226;-59
2023/03/09 06:41:53;;;;;;;1.13;0.57;;;;;;;;;;5073938;28;20203;-60
2023/03/09 06:44:20;;;;;;;2.23;0.60;;;;;;;;;;5068029;28;20219;-59
2023/03/09 06:46:48;;;;;;;5.83;0.70;;;;;;;;;;5083509;28;20207;-60
2023/03/09 06:49:15;;;;;;;0.67;0.57;;;;;;;;;;5072988;28;20207;-59
2023/03/09 06:51:42;;;;;;;0.30;0.30;;;;;;;;;;5085318;28;20210;-59
2023/03/09 06:54:09;;;;;;;6.93;0.80;;;;;;;;;;5085611;28;20215;-60
2023/03/09 06:56:36;;;;;;;1.70;0.50;;;;;;;;;;5073901;28;20220;-60
2023/03/09 06:59:03;;;;;;;1.50;0.47;;;;;;;;;;5085139;28;20935;-58
2023/03/09 07:01:31;;;;;;;0.50;0.50;;;;;;;;;;5046778;28;20204;-60
2023/03/09 07:03:59;;;;;;;1.43;0.43;;;;;;;;;;5046975;28;20889;-59
2023/03/09 07:06:26;;;;;;;2.53;0.60;;;;;;;;;;5084169;28;20620;-59
2023/03/09 07:08:53;;;;;;;8.20;0.90;;;;;;;;;;5085284;28;20227;-59
2023/03/09 07:11:20;;;;;;;1.00;0.70;;;;;;;;;;5067864;28;20648;-59
2023/03/09 07:13:47;;;;;;;0.50;0.50;;;;;;;;;;5065089;28;20227;-58
2023/03/09 07:16:14;;;;;;;5.27;1.07;;;;;;;;;;5086757;28;20206;-59
2023/03/09 07:18:42;;;;;;;0.90;0.90;;;;;;;;;;5081530;28;20227;-59
2023/03/09 07:21:11;;;;;;;1.10;1.00;;;;;;;;;;5070177;28;21066;-59
2023/03/09 07:23:38;;;;;;;1.20;0.97;;;;;;;;;;5066883;28;20688;-58
2023/03/09 07:26:05;;;;;;;5.10;0.70;;;;;;;;;;5070706;28;20598;-59
2023/03/09 07:28:33;;;;;;;0.90;0.80;;;;;;;;;;5070920;28;20207;-60
2023/03/09 07:31:00;;;;;;;0.73;0.70;;;;;;;;;;5070595;28;20218;-59
2023/03/09 07:33:27;;;;;;;1.33;1.00;;;;;;;;;;5070633;28;20232;-59
2023/03/09 07:35:54;;;;;;;0.93;0.93;;;;;;;;;;5068643;28;20217;-59
2023/03/09 07:38:22;;;;;;;1.80;1.00;;;;;;;;;;5069962;28;20234;-59
2023/03/09 07:40:50;;;;;;;1.50;0.60;;;;;;;;;;5070220;28;20866;-60
2023/03/09 07:43:17;;;;;;;3.53;1.20;;;;;;;;;;5069816;28;21336;-60
2023/03/09 07:45:44;;;;;;;0.57;0.57;;;;;;;;;;5075887;28;20202;-60
2023/03/09 07:48:12;;;;;;;0.73;0.70;;;;;;;;;;5089463;28;20209;-60
2023/03/09 07:50:39;;;;;;;4.23;0.73;;;;;;;;;;5080213;28;20368;-60
2023/03/09 07:53:06;;;;;;;1.30;0.70;;;;;;;;;;5088251;28;20206;-60
2023/03/09 07:55:35;;;;;;;0.60;0.53;;;;;;;;;;5071523;28;20214;-60
2023/03/09 07:58:02;;;;;;;1.27;0.70;;;;;;;;;;5070424;28;20207;-60
2023/03/09 08:00:29;;;;;;;1.83;0.40;;;;;;;;;;5074162;28;20297;-60
2023/03/09 08:02:57;;;;;;;1.73;0.80;;;;;;;;;;5061101;28;20207;-60
2023/03/09 08:05:24;;;;;;;0.53;0.47;;;;;;;;;;5073880;28;20297;-61
2023/03/09 08:07:51;;;;;;;1.83;0.50;;;;;;;;;;5088983;28;20210;-59
2023/03/09 08:10:19;;;;;;;0.30;0.30;;;;;;;;;;5072602;28;20237;-59
2023/03/09 08:12:50;;;;;;;0.30;0.30;;;;;;;;;;5068898;28;20207;-60
2023/03/09 08:15:20;;;;;;;0.93;0.33;;;;;;;;;;5066025;28;20301;-60
2023/03/09 08:17:47;;;;;;;0.20;0.20;;;;;;;;;;5059907;28;20219;-60
2023/03/09 08:20:14;;;;;;;1.00;0.50;;;;;;;;;;5047327;28;20293;-59
2023/03/09 08:22:41;;;;;;;0.40;0.40;;;;;;;;;;5060215;28;20234;-59
2023/03/09 08:25:09;;;;;;;0.30;0.30;;;;;;;;;;5069415;28;20560;-59
2023/03/09 08:27:40;;;;;;;0.83;0.40;;;;;;;;;;5069060;28;20363;-59
2023/03/09 08:30:09;;;;;;;0.40;0.40;;;;;;;;;;5067471;28;20226;-59
2023/03/09 08:32:36;;;;;;;1.63;0.40;;;;;;;;;;5068751;28;20203;-59
2023/03/09 08:35:04;;;;;;;0.40;0.40;;;;;;;;;;5069331;28;20218;-59
2023/03/09 08:37:31;;;;;;;1.07;0.50;;;;;;;;;;5068720;28;20653;-59
2023/03/09 08:39:58;;;;;;;0.50;0.20;;;;;;;;;;5068667;28;20230;-60
2023/03/09 08:42:25;;;;;;;0.20;0.20;;;;;;;;;;5068619;28;20203;-59
2023/03/09 08:44:52;;;;;;;0.30;0.30;;;;;;;;;;5068760;28;20263;-59
2023/03/09 08:47:20;;;;;;;0.20;0.20;;;;;;;;;;5068381;28;20597;-59
2023/03/09 08:49:48;;;;;;;1.43;0.50;;;;;;;;;;5067692;28;20211;-60
2023/03/09 08:52:15;;;;;;;0.53;0.53;;;;;;;;;;5068658;28;20270;-61
2023/03/09 08:54:42;;;;;;;0.30;0.30;;;;;;;;;;5068695;28;20211;-60
2023/03/09 08:57:09;;;;;;;0.60;0.47;;;;;;;;;;5068618;28;20302;-60
2023/03/09 08:59:36;;;;;;;0.20;0.20;;;;;;;;;;5068494;28;20229;-59
2023/03/09 09:02:03;;;;;;;0.77;0.30;;;;;;;;;;5068018;28;20238;-60
2023/03/09 09:04:32;;;;;;;0.37;0.30;;;;;;;;;;5068318;28;20210;-60
2023/03/09 09:06:59;;;;;;;2.23;0.50;;;;;;;;;;5068063;28;20222;-60
2023/03/09 09:09:26;;;;;;;3.80;0.30;;;;;;;;;;5068403;28;20203;-60
2023/03/09 09:11:53;;;;;;;2.03;0.50;;;;;;;;;;5068166;28;20206;-60
2023/03/09 09:14:20;;;;;;;0.20;0.20;;;;;;;;;;5068350;28;20211;-60
2023/03/09 09:16:47;;;;;;;0.97;0.23;;;;;;;;;;5068184;28;20207;-60
2023/03/09 09:19:14;;;;;;;1.17;0.30;;;;;;;;;;5068122;28;20227;-60
2023/03/09 09:21:42;;;;;;;0.27;0.23;;;;;;;;;;5065918;28;20219;-60
2023/03/09 09:24:10;;;;;;;2.00;0.30;;;;;;;;;;5067573;28;20215;-67
2023/03/09 09:26:37;;;;;;;0.40;0.40;;;;;;;;;;5067950;28;20207;-60
2023/03/09 09:29:05;;;;;;;0.57;0.40;;;;;;;;;;5066203;28;20222;-60
2023/03/09 09:31:33;;;;;;;0.87;0.40;;;;;;;;;;5067635;28;20249;-60
2023/03/09 09:34:00;;;;;;;0.63;0.20;;;;;;;;;;5064304;28;20234;-60
2023/03/09 09:36:27;;;;;;;0.73;0.30;;;;;;;;;;5067374;28;20202;-59
2023/03/09 09:38:56;;;;;;;1.07;0.37;;;;;;;;;;5067049;28;20334;-60
2023/03/09 09:41:26;;;;;;;2.93;0.30;;;;;;;;;;5066151;28;20665;-61
2023/03/09 09:43:56;;;;;;;1.23;0.37;;;;;;;;;;5067645;28;20211;-60
2023/03/09 09:46:24;;;;;;;0.30;0.30;;;;;;;;;;5065938;28;20210;-61
2023/03/09 09:48:51;;;;;;;0.30;0.30;;;;;;;;;;5067790;28;20211;-60
2023/03/09 09:51:29;;;;;;;2.07;0.53;;;;;;;;;;5067794;28;20230;-60
2023/03/09 09:54:02;;;;;;;0.70;0.37;;;;;;;;;;5063865;28;20237;-60
2023/03/09 09:56:34;;;;;;;0.40;0.40;;;;;;;;;;5067705;28;20203;-60
2023/03/09 09:59:03;;;;;;;0.30;0.20;;;;;;;;;;5063486;28;20234;-60
2023/03/09 10:01:39;;;;;;;3.93;0.60;;;;;;;;;;5065108;28;20211;-59
2023/03/09 10:04:10;;;;;;;0.57;0.40;;;;;;;;;;5065353;28;20232;-60
2023/03/09 10:06:37;;;;;;;0.63;0.60;;;;;;;;;;5065359;28;20203;-59
2023/03/09 10:09:08;;;;;;;0.97;0.30;;;;;;;;;;5067551;28;20207;-60
2023/03/09 10:11:36;;;;;;;2.87;0.50;;;;;;;;;;5067672;28;20825;-59
2023/03/09 10:14:06;;;;;;;0.77;0.60;;;;;;;;;;5067172;28;20259;-59
2023/03/09 10:16:36;;;;;;;0.50;0.50;;;;;;;;;;5066960;28;20199;-59
2023/03/09 10:19:06;;;;;;;0.50;0.50;;;;;;;;;;5067094;28;20226;-60
2023/03/09 10:21:38;;;;;;;1.40;0.73;;;;;;;;;;5065347;28;20283;-59
2023/03/09 10:24:18;;;;;;;2.10;0.53;;;;;;;;;;5065181;28;20211;-59
2023/03/09 10:26:51;;;;;;;0.40;0.40;;;;;;;;;;5067292;28;20284;-60
2023/03/09 10:29:20;;;;;;;0.93;0.57;;;;;;;;;;5067240;28;20220;-60
2023/03/09 10:31:52;;;;;;;2.30;0.23;;;;;;;;;;5066781;28;20217;-60
2023/03/09 10:34:21;;;;;;;0.50;0.30;;;;;;;;;;5067103;28;20243;-60
2023/03/09 10:36:54;;;;;;;1.60;0.40;;;;;;;;;;5066796;28;20280;-60
2023/03/09 10:39:23;;;;;;;1.07;0.53;;;;;;;;;;5066767;28;20231;-60
2023/03/09 10:41:50;;;;;;;1.13;0.50;;;;;;;;;;5066717;28;20210;-60
2023/03/09 10:44:20;;;;;;;3.97;0.33;;;;;;;;;;5066952;28;20219;-60
2023/03/09 10:46:59;;;;;;;3.70;0.57;;;;;;;;;;5066805;28;20670;-60
2023/03/09 10:49:27;;;;;;;2.77;0.53;;;;;;;;;;5068341;28;20497;-60
2023/03/09 10:52:00;;;;;;;5.00;0.70;;;;;;;;;;5070621;28;20238;-60
2023/03/09 10:54:30;;;;;;;3.70;0.57;;;;;;;;;;5070573;28;20253;-60
2023/03/09 10:56:57;;;;;;;3.03;0.30;;;;;;;;;;5070459;28;20207;-60
2023/03/09 10:59:25;;;;;;;3.13;0.60;;;;;;;;;;5070364;28;20277;-59
2023/03/09 11:01:54;;;;;;;1.73;0.47;;;;;;;;;;5070167;28;20246;-59
2023/03/09 11:04:29;;;;;;;3.50;0.90;;;;;;;;;;5070413;28;20895;-60
2023/03/09 11:06:56;;;;;;;3.03;0.50;;;;;;;;;;5070449;28;20202;-59
2023/03/09 11:09:28;;;;;;;0.73;0.47;;;;;;;;;;5070587;28;20210;-60
2023/03/09 11:12:09;;;;;;;0.40;0.40;;;;;;;;;;5070528;28;20203;-60
2023/03/09 11:14:40;;;;;;;0.40;0.40;;;;;;;;;;5070453;28;20214;-60
2023/03/09 11:17:25;;;;;;;1.50;0.70;;;;;;;;;;5070365;28;20211;-61
2023/03/09 11:19:52;;;;;;;0.37;0.37;;;;;;;;;;5070209;28;20231;-61
2023/03/09 11:22:20;;;;;;;0.40;0.40;;;;;;;;;;5067628;28;20230;-60
2023/03/09 11:24:47;;;;;;;1.10;0.30;;;;;;;;;;5070252;28;20790;-60
2023/03/09 11:27:19;;;;;;;1.77;0.43;;;;;;;;;;5069968;28;20551;-61
2023/03/09 11:29:51;;;;;;;0.80;0.30;;;;;;;;;;5070178;28;20314;-60
2023/03/09 11:32:18;;;;;;;0.30;0.30;;;;;;;;;;5069927;28;20286;-61
2023/03/09 11:34:46;;;;;;;1.37;0.47;;;;;;;;;;5070104;28;20211;-62
2023/03/09 11:37:16;;;;;;;0.20;0.20;;;;;;;;;;5069924;28;20276;-59
2023/03/09 11:39:46;;;;;;;0.20;0.20;;;;;;;;;;5069812;28;20506;-60
2023/03/09 11:42:15;;;;;;;0.60;0.20;;;;;;;;;;5069811;28;20207;-60
2023/03/09 11:44:45;;;;;;;0.50;0.50;;;;;;;;;;5069758;28;20301;-59
2023/03/09 11:47:25;;;;;;;0.30;0.30;;;;;;;;;;5067125;28;20203;-60
2023/03/09 11:49:54;;;;;;;0.30;0.30;;;;;;;;;;5067857;28;20743;-60
2023/03/09 11:52:27;;;;;;;1.23;0.30;;;;;;;;;;5068229;28;20210;-63
2023/03/09 11:54:56;;;;;;;2.85;0.52;;;;;;;;;;5069341;28;20298;-60
2023/03/09 11:57:25;;;;;;;1.02;0.40;;;;;;;;;;5069434;28;20211;-59
2023/03/09 11:59:56;;;;;;;1.15;0.38;;;;;;;;;;5069222;28;20261;-60
2023/03/09 12:02:25;;;;;;;0.30;0.30;;;;;;;;;;5068594;28;20207;-60
2023/03/09 12:04:54;;;;;;;2.65;0.50;;;;;;;;;;5067802;28;20210;-59
2023/03/09 12:07:24;;;;;;;2.08;0.40;;;;;;;;;;5066941;28;20272;-61
2023/03/09 12:09:55;;;;;;;1.45;0.60;;;;;;;;;;5069525;28;20666;-61
2023/03/09 12:12:26;;;;;;;1.27;0.30;;;;;;;;;;5069863;28;20290;-61
2023/03/09 12:14:56;;;;;;;0.35;0.20;;;;;;;;;;5068983;28;20215;-60
2023/03/09 12:17:27;;;;;;;0.30;0.30;;;;;;;;;;5079664;28;20630;-61
2023/03/09 12:19:55;;;;;;;1.85;0.47;;;;;;;;;;5061046;28;20241;-60
2023/03/09 12:22:27;;;;;;;3.17;0.47;;;;;;;;;;5061065;28;20219;-62
2023/03/09 12:24:56;;;;;;;1.30;0.40;;;;;;;;;;5069129;28;20214;-60
2023/03/09 12:27:24;;;;;;;2.38;0.47;;;;;;;;;;5068780;28;20253;-61
2023/03/09 12:29:52;;;;;;;0.63;0.38;;;;;;;;;;5064818;28;20212;-60
2023/03/09 12:32:34;;;;;;;0.45;0.45;;;;;;;;;;5063800;28;20577;-64
2023/03/09 12:35:03;;;;;;;4.68;0.82;;;;;;;;;;5062408;28;20223;-61
2023/03/09 12:37:55;;;;;;;0.98;0.60;;;;;;;;;;5058167;28;20261;-61
2023/03/09 12:40:30;;;;;;;1.30;0.60;;;;;;;;;;5068192;28;20231;-61
2023/03/09 12:42:58;;;;;;;0.93;0.40;;;;;;;;;;5068291;28;20417;-61
2023/03/09 12:45:29;;;;;;;1.35;0.30;;;;;;;;;;5068284;28;20215;-61
2023/03/09 12:47:59;;;;;;;1.00;0.40;;;;;;;;;;5064505;28;20206;-61
2023/03/09 12:50:28;;;;;;;0.28;0.28;;;;;;;;;;5068475;28;20230;-61
2023/03/09 12:53:01;;;;;;;0.38;0.38;;;;;;;;;;5065119;28;20225;-61
2023/03/09 12:55:43;;;;;;;1.48;0.60;;;;;;;;;;5068164;28;20684;-60
2023/03/09 12:58:35;;;;;;;1.45;0.40;;;;;;;;;;5068430;28;20293;-61
2023/03/09 13:01:05;;;;;;;4.82;0.40;;;;;;;;;;5068420;28;20712;-61
2023/03/09 13:03:36;;;;;;;2.80;0.40;;;;;;;;;;5067928;28;20681;-61
2023/03/09 13:06:04;;;;;;;0.75;0.45;;;;;;;;;;5068455;28;20248;-61
2023/03/09 13:08:33;;;;;;;1.60;0.60;;;;;;;;;;5068482;28;20680;-61
2023/03/09 13:11:19;;;;;;;2.35;0.52;;;;;;;;;;5068415;28;20737;-61
2023/03/09 13:13:46;;;;;;;3.05;0.50;;;;;;;;;;5067846;28;20226;-61
2023/03/09 13:16:32;;;;;;;0.52;0.38;;;;;;;;;;5068257;28;20209;-60
2023/03/09 13:19:17;;;;;;;3.10;0.40;;;;;;;;;;5068287;28;20807;-60
2023/03/09 13:21:47;;;;;;;2.67;0.77;;;;;;;;;;5067876;28;20238;-63
2023/03/09 13:24:16;;;;;;;0.77;0.77;;;;;;;;;;5067392;28;20242;-61
2023/03/09 13:26:44;;;;;;;1.00;0.40;;;;;;;;;;5068033;28;20652;-60
2023/03/09 13:29:12;;;;;;;2.03;0.52;;;;;;;;;;5067916;28;20253;-62
2023/03/09 13:31:39;;;;;;;1.00;0.43;;;;;;;;;;5067904;28;20268;-61
2023/03/09 13:34:06;;;;;;;4.15;0.82;;;;;;;;;;5067745;28;20207;-61
2023/03/09 13:36:34;;;;;;;2.47;0.80;;;;;;;;;;5067980;28;21043;-61
2023/03/09 13:39:05;;;;;;;1.75;0.70;;;;;;;;;;5067531;28;20234;-61
2023/03/09 13:41:33;;;;;;;0.75;0.20;;;;;;;;;;5067570;28;20296;-62
2023/03/09 13:44:01;;;;;;;0.52;0.52;;;;;;;;;;5067436;28;20229;-61
2023/03/09 13:46:30;;;;;;;4.07;0.75;;;;;;;;;;5067895;28;20211;-61
2023/03/09 13:49:00;;;;;;;0.65;0.50;;;;;;;;;;5066611;28;20264;-61
2023/03/09 13:51:29;;;;;;;1.15;0.90;;;;;;;;;;5066896;28;20206;-60
2023/03/09 13:53:56;;;;;;;3.10;0.65;;;;;;;;;;5067458;28;20206;-63
2023/03/09 13:56:24;;;;;;;1.70;0.68;;;;;;;;;;5067676;28;20261;-60
2023/03/09 13:58:52;;;;;;;1.55;0.60;;;;;;;;;;5067698;28;20219;-60
2023/03/09 14:01:21;;;;;;;1.13;0.65;;;;;;;;;;5067344;28;20317;-61
2023/03/09 14:03:48;;;;;;;0.65;0.40;;;;;;;;;;5066808;28;20206;-60
2023/03/09 14:06:17;;;;;;;1.40;0.45;;;;;;;;;;5067121;28;20571;-60
2023/03/09 14:08:51;;;;;;;0.98;0.60;;;;;;;;;;5067208;28;20615;-61
2023/03/09 14:11:19;;;;;;;1.17;0.60;;;;;;;;;;5068251;28;20203;-61
2023/03/09 14:13:49;;;;;;;1.50;0.20;;;;;;;;;;5058916;28;20207;-60
2023/03/09 14:16:18;;;;;;;0.32;0.32;;;;;;;;;;5068220;28;20210;-62
2023/03/09 14:18:48;;;;;;;1.42;0.30;;;;;;;;;;5066554;28;20233;-60
2023/03/09 14:21:19;;;;;;;2.55;0.60;;;;;;;;;;5066790;28;20326;-61
2023/03/09 14:23:47;;;;;;;1.55;0.60;;;;;;;;;;5067430;28;20754;-61
2023/03/09 14:26:14;;;;;;;0.82;0.30;;;;;;;;;;5085652;28;20205;-61
2023/03/09 14:28:42;;;;;;;3.03;0.70;;;;;;;;;;5070750;28;20258;-60
2023/03/09 14:31:15;;;;;;;3.42;0.98;;;;;;;;;;5073512;28;20734;-61
2023/03/09 14:33:55;;;;;;;0.55;0.55;;;;;;;;;;5070653;28;20669;-61
2023/03/09 14:36:22;;;;;;;2.97;0.68;;;;;;;;;;5083205;28;20554;-61
2023/03/09 14:38:53;;;;;;;0.98;0.50;;;;;;;;;;5082438;28;20233;-61
2023/03/09 14:41:21;;;;;;;2.33;0.75;;;;;;;;;;5071182;28;20237;-61
2023/03/09 14:43:49;;;;;;;0.88;0.52;;;;;;;;;;5070801;28;20761;-60
2023/03/09 14:46:18;;;;;;;1.55;0.60;;;;;;;;;;5078352;28;20255;-61
2023/03/09 14:48:48;;;;;;;2.85;0.50;;;;;;;;;;5083111;28;20775;-61
2023/03/09 14:51:16;;;;;;;0.40;0.40;;;;;;;;;;5070643;28;20722;-61
2023/03/09 14:54:04;;;;;;;2.92;0.50;;;;;;;;;;5070529;28;20211;-61